Terminal Aerodrome Forecast
Issued by NWS

Current Version | Previous Version | Graphics & Text | Print | Product List | Glossary On
Versions: 1 2 3 4 5 6 7 8 9 10 11 12 13 14 15 16 17 18 19 20 21 22 23 24 25 26 27 28
382
FTUS41 KILN 250254 AAA
TAFLCK
TAF AMD
KLCK 250254Z 2503/2524 19008KT P6SM SCT040 BKN250
     FM250400 18006KT P6SM VCTS SCT040CB BKN100
      TEMPO 2504/2505 3SM TSRA BKN040CB
     FM250600 18006KT P6SM SCT050 BKN250
     FM251500 22008KT P6SM FEW040=

USA.gov is the U.S. government's official web portal to all federal, state and local government web resources and services.